createdAt,value
2022-08-07T00:02:40.430Z,17.17
2022-08-07T00:05:03.959Z,24.17
2022-08-07T00:07:40.360Z,14.20
2022-08-07T00:10:30.448Z,15.83
2022-08-07T00:13:02.100Z,17.47
2022-08-07T00:15:35.869Z,16.40
2022-08-07T00:18:03.757Z,28.30
2022-08-07T00:20:34.488Z,23.93
2022-08-07T00:23:03.062Z,19.67
2022-08-07T00:25:37.508Z,18.90
2022-08-07T00:28:08.495Z,19.00
2022-08-07T00:30:37.693Z,14.37
2022-08-07T00:33:05.689Z,19.87
2022-08-07T00:35:39.258Z,15.77
2022-08-07T00:38:06.501Z,12.93
2022-08-07T00:40:39.837Z,23.40
2022-08-07T00:43:10.535Z,26.73
2022-08-07T00:46:00.323Z,17.50
2022-08-07T00:48:33.511Z,19.10
2022-08-07T00:51:02.808Z,18.50
2022-08-07T00:53:38.925Z,16.50
2022-08-07T00:56:20.255Z,16.53
2022-08-07T00:58:49.588Z,19.07
2022-08-07T01:01:18.766Z,15.53
2022-08-07T01:03:56.283Z,19.73
2022-08-07T01:06:29.221Z,14.37
2022-08-07T01:08:58.557Z,19.97
2022-08-07T01:12:23.931Z,11.03
2022-08-07T01:14:28.535Z,11.63
2022-08-07T01:16:56.915Z,12.20
2022-08-07T01:19:32.524Z,15.57
2022-08-07T01:22:03.661Z,12.50
2022-08-07T01:24:36.151Z,11.60
2022-08-07T01:27:03.835Z,13.13
2022-08-07T01:29:33.925Z,15.60
2022-08-07T01:32:12.265Z,21.03
2022-08-07T01:34:44.520Z,15.47
2022-08-07T01:37:17.261Z,13.00
2022-08-07T01:39:49.472Z,20.97
2022-08-07T01:42:38.115Z,21.23
2022-08-07T01:45:18.301Z,18.87
2022-08-07T01:48:18.476Z,21.60
2022-08-07T01:50:43.147Z,17.33
2022-08-07T01:53:11.752Z,17.60
2022-08-07T01:55:57.038Z,13.80
2022-08-07T01:58:27.395Z,16.30
2022-08-07T02:01:24.985Z,12.60
2022-08-07T02:04:02.348Z,12.10
2022-08-07T02:06:34.533Z,14.97
2022-08-07T02:09:05.372Z,12.03
2022-08-07T02:12:03.683Z,12.60
2022-08-07T02:14:35.783Z,13.53
2022-08-07T02:17:04.137Z,13.50
2022-08-07T02:20:06.815Z,11.93
2022-08-07T02:22:25.620Z,15.10
2022-08-07T02:24:59.596Z,13.20
2022-08-07T02:27:34.295Z,16.77
2022-08-07T02:30:07.137Z,16.70
2022-08-07T02:32:39.547Z,11.73
2022-08-07T02:36:27.254Z,17.63
2022-08-07T02:38:22.821Z,30.23
2022-08-07T02:41:00.072Z,15.40
2022-08-07T02:43:28.602Z,12.47
2022-08-07T02:46:02.759Z,14.73
2022-08-07T02:48:34.509Z,13.30
2022-08-07T02:51:28.859Z,13.90
2022-08-07T02:54:03.207Z,16.80
2022-08-07T02:56:33.230Z,17.73
2022-08-07T02:59:04.733Z,19.30
2022-08-07T03:01:40.062Z,11.33
2022-08-07T03:04:12.432Z,12.60
2022-08-07T03:06:48.033Z,11.03
2022-08-07T03:09:43.483Z,14.30
2022-08-07T03:12:05.317Z,11.83
2022-08-07T03:14:36.230Z,14.90
2022-08-07T03:17:08.766Z,15.00
2022-08-07T03:19:37.131Z,13.13
2022-08-07T03:22:07.145Z,13.40
2022-08-07T03:24:36.740Z,13.10
2022-08-07T03:27:10.474Z,12.50
2022-08-07T03:29:57.129Z,14.10
2022-08-07T03:32:32.218Z,16.00
2022-08-07T03:35:18.069Z,15.50
2022-08-07T03:37:53.943Z,14.93
2022-08-07T03:40:27.454Z,11.07
2022-08-07T03:43:04.114Z,16.27
2022-08-07T03:45:43.513Z,15.93
2022-08-07T03:48:20.075Z,16.97
2022-08-07T03:50:56.115Z,22.30
2022-08-07T03:53:49.883Z,15.87
2022-08-07T03:56:18.567Z,12.90
2022-08-07T03:59:08.993Z,15.37
2022-08-07T04:01:45.434Z,11.70
2022-08-07T04:04:17.379Z,11.90
2022-08-07T04:06:50.872Z,18.40
2022-08-07T04:09:19.977Z,14.60
2022-08-07T04:12:26.570Z,11.53
2022-08-07T04:14:43.879Z,13.47
2022-08-07T04:17:20.902Z,13.17
2022-08-07T04:20:10.245Z,13.67
2022-08-07T04:22:39.246Z,11.53
2022-08-07T04:25:23.515Z,14.47
2022-08-07T04:27:59.447Z,23.93
2022-08-07T04:30:35.790Z,15.80
2022-08-07T04:33:15.478Z,13.47
2022-08-07T04:35:50.545Z,16.80
2022-08-07T04:38:22.973Z,15.60
2022-08-07T04:40:56.650Z,25.43
2022-08-07T04:44:12.023Z,13.67
2022-08-07T04:46:59.697Z,17.33
2022-08-07T04:50:05.807Z,13.67
2022-08-07T04:52:55.889Z,12.80
2022-08-07T04:58:14.161Z,14.80
2022-08-07T05:01:50.454Z,11.50
2022-08-07T05:04:59.531Z,18.33
2022-08-07T05:08:10.472Z,12.70
2022-08-07T05:10:49.308Z,12.03
2022-08-07T05:14:52.255Z,14.30
2022-08-07T05:16:29.469Z,11.70
2022-08-07T05:19:07.076Z,12.73
2022-08-07T05:21:59.813Z,11.63
2022-08-07T05:24:30.372Z,12.97
2022-08-07T05:27:00.457Z,12.40
2022-08-07T05:29:38.814Z,19.97
2022-08-07T05:32:19.600Z,12.27
2022-08-07T05:34:48.756Z,11.97
2022-08-07T05:37:25.491Z,11.03
2022-08-07T05:40:13.581Z,16.97
2022-08-07T05:42:40.084Z,16.60
2022-08-07T05:45:26.196Z,10.80
2022-08-07T05:48:01.459Z,11.03
2022-08-07T05:50:32.061Z,17.63
2022-08-07T05:53:02.790Z,12.13
2022-08-07T05:56:03.030Z,12.77
2022-08-07T05:58:36.350Z,13.40
2022-08-07T06:01:10.496Z,12.50
2022-08-07T06:04:01.224Z,16.57
2022-08-07T06:06:29.386Z,14.53
2022-08-07T06:08:59.248Z,10.93
2022-08-07T06:11:31.687Z,12.00
2022-08-07T06:14:12.620Z,19.90
2022-08-07T06:16:56.041Z,13.43
2022-08-07T06:19:52.169Z,11.13
2022-08-07T06:22:24.051Z,10.83
2022-08-07T06:24:58.476Z,10.00
2022-08-07T06:27:44.502Z,10.57
2022-08-07T06:30:32.427Z,20.37
2022-08-07T06:33:15.582Z,11.53
2022-08-07T06:35:48.077Z,13.53
2022-08-07T06:38:33.415Z,13.93
2022-08-07T06:41:07.006Z,17.70
2022-08-07T06:43:39.277Z,8.83
2022-08-07T06:46:12.332Z,8.50
2022-08-07T06:48:42.131Z,7.77
2022-08-07T06:51:31.366Z,8.73
2022-08-07T06:55:33.772Z,7.00
2022-08-07T06:56:59.358Z,7.27
2022-08-07T07:00:13.122Z,7.77
2022-08-07T07:02:48.581Z,8.43
2022-08-07T07:06:03.226Z,9.37
2022-08-07T07:08:18.720Z,8.73
2022-08-07T07:10:56.971Z,7.87
2022-08-07T07:13:58.548Z,9.60
2022-08-07T07:16:45.240Z,8.57
2022-08-07T07:19:56.263Z,7.40
2022-08-07T07:22:34.163Z,4.30
2022-08-07T07:26:30.877Z,5.00
2022-08-07T07:28:07.761Z,3.70
2022-08-07T07:31:10.692Z,4.63
2022-08-07T07:33:39.475Z,4.57
2022-08-07T07:36:12.830Z,4.70
2022-08-07T07:38:43.381Z,5.17
2022-08-07T07:41:16.771Z,4.90
2022-08-07T07:44:16.961Z,10.77
2022-08-07T07:46:55.877Z,7.60
2022-08-07T07:50:35.829Z,5.83
2022-08-07T07:52:18.873Z,8.57
2022-08-07T07:54:51.183Z,5.63
2022-08-07T07:57:50.212Z,5.33
2022-08-07T08:00:21.181Z,5.47
2022-08-07T08:03:07.997Z,7.00
2022-08-07T08:05:54.339Z,5.47
2022-08-07T08:08:35.708Z,9.33
2022-08-07T08:11:16.560Z,4.90
2022-08-07T08:13:54.052Z,5.00
2022-08-07T08:16:29.997Z,4.70
2022-08-07T08:19:17.990Z,4.33
2022-08-07T08:22:14.546Z,7.70
2022-08-07T08:25:24.798Z,3.40
2022-08-07T08:28:03.633Z,13.70
2022-08-07T08:30:37.391Z,5.50
2022-08-07T08:33:16.886Z,4.97
2022-08-07T08:35:51.835Z,5.07
2022-08-07T08:38:31.189Z,4.30
2022-08-07T08:41:05.811Z,4.60
2022-08-07T08:43:58.806Z,4.57
2022-08-07T08:46:38.989Z,4.30
2022-08-07T08:49:33.563Z,5.47
2022-08-07T08:52:18.902Z,5.13
2022-08-07T08:55:21.065Z,5.30
2022-08-07T08:58:28.629Z,4.93
2022-08-07T09:01:15.113Z,5.10
2022-08-07T09:04:26.064Z,6.40
2022-08-07T09:07:27.086Z,4.93
2022-08-07T09:10:27.809Z,4.20
2022-08-07T09:13:37.982Z,5.13
2022-08-07T09:16:29.876Z,4.67
2022-08-07T09:19:51.419Z,3.93
2022-08-07T09:24:32.558Z,10.13
2022-08-07T09:26:20.852Z,4.20
2022-08-07T09:30:01.187Z,4.00
2022-08-07T09:32:26.342Z,5.53
2022-08-07T09:36:03.130Z,4.10
2022-08-07T09:38:56.804Z,4.17
2022-08-07T09:42:03.050Z,4.23
2022-08-07T09:47:37.257Z,4.83
2022-08-07T09:47:55.861Z,7.60
2022-08-07T09:50:54.646Z,4.00
2022-08-07T09:53:24.748Z,12.10
2022-08-07T09:56:04.612Z,8.07
2022-08-07T09:59:21.626Z,4.07
2022-08-07T10:02:24.207Z,8.37
2022-08-07T10:05:58.139Z,3.80
2022-08-07T10:08:57.396Z,3.77
2022-08-07T10:12:01.459Z,4.80
2022-08-07T10:15:18.657Z,4.43
2022-08-07T10:18:03.406Z,3.90
2022-08-07T10:21:29.680Z,3.43
2022-08-07T10:24:39.792Z,4.17
2022-08-07T10:27:45.723Z,3.70
2022-08-07T10:30:19.590Z,3.80
2022-08-07T10:34:14.068Z,4.00
2022-08-07T10:37:12.349Z,7.23
2022-08-07T10:40:05.993Z,4.40
2022-08-07T10:42:59.913Z,4.40
2022-08-07T10:45:57.750Z,12.13
2022-08-07T10:49:14.735Z,3.77
2022-08-07T10:52:13.518Z,4.40
2022-08-07T10:55:20.803Z,3.10
2022-08-07T10:58:33.343Z,4.47
2022-08-07T11:01:35.595Z,4.50
2022-08-07T11:05:16.066Z,3.97
2022-08-07T11:08:30.172Z,4.63
2022-08-07T11:11:09.645Z,8.30
2022-08-07T11:14:56.640Z,3.80
2022-08-07T11:17:23.317Z,4.30
2022-08-07T11:20:13.650Z,3.93
2022-08-07T11:23:30.266Z,4.50
2022-08-07T11:26:24.882Z,6.93
2022-08-07T11:29:41.036Z,3.53
2022-08-07T11:32:11.854Z,3.80
2022-08-07T11:34:49.655Z,4.00
2022-08-07T11:37:57.975Z,3.97
2022-08-07T11:41:04.677Z,3.43
2022-08-07T11:44:11.379Z,3.50
2022-08-07T11:47:21.248Z,5.20
2022-08-07T11:50:32.437Z,4.37
2022-08-07T11:53:27.453Z,5.50
2022-08-07T11:56:48.628Z,4.30
2022-08-07T12:00:10.407Z,4.17
2022-08-07T12:03:45.631Z,3.80
2022-08-07T12:06:39.140Z,4.53
2022-08-07T12:09:28.772Z,3.90
2022-08-07T12:12:14.765Z,3.70
2022-08-07T12:15:35.846Z,4.10
2022-08-07T12:18:16.316Z,3.60
2022-08-07T12:21:21.124Z,4.27
2022-08-07T12:24:38.140Z,3.60
2022-08-07T12:27:18.709Z,3.77
2022-08-07T12:30:06.740Z,4.30
2022-08-07T12:33:09.268Z,3.80
2022-08-07T12:35:58.193Z,3.57
2022-08-07T12:38:42.877Z,3.27
2022-08-07T12:41:16.156Z,3.53
2022-08-07T12:44:02.860Z,3.97
2022-08-07T12:46:55.998Z,3.30
2022-08-07T12:49:52.918Z,4.10
2022-08-07T12:52:48.605Z,3.57
2022-08-07T12:55:41.208Z,3.67
2022-08-07T12:58:28.294Z,3.87
2022-08-07T13:01:28.070Z,5.33
2022-08-07T13:04:38.857Z,4.93
2022-08-07T13:08:13.700Z,3.50
2022-08-07T13:11:28.710Z,3.80
2022-08-07T13:14:09.297Z,3.00
2022-08-07T13:16:51.204Z,3.03
2022-08-07T13:19:45.934Z,3.07
2022-08-07T13:22:36.725Z,3.43
2022-08-07T13:25:23.893Z,3.47
2022-08-07T13:28:11.236Z,5.03
2022-08-07T13:30:52.215Z,3.40
2022-08-07T13:34:34.688Z,3.23
2022-08-07T13:36:39.724Z,3.07
2022-08-07T13:39:49.777Z,3.50
2022-08-07T13:42:06.318Z,3.63
2022-08-07T13:44:37.391Z,3.20
2022-08-07T13:47:09.124Z,3.70
2022-08-07T13:50:34.310Z,3.70
2022-08-07T13:52:38.083Z,3.83
2022-08-07T13:55:26.265Z,5.03
2022-08-07T13:58:28.168Z,6.00
2022-08-07T14:01:10.064Z,3.40
2022-08-07T14:04:07.284Z,4.00
2022-08-07T14:06:40.139Z,7.40
2022-08-07T14:10:02.488Z,3.30
2022-08-07T14:12:29.910Z,5.90
2022-08-07T14:15:23.726Z,3.27
2022-08-07T14:18:28.057Z,3.00
2022-08-07T14:20:54.412Z,3.33
2022-08-07T14:23:31.385Z,3.50
2022-08-07T14:26:29.746Z,4.17
2022-08-07T14:29:08.637Z,3.63
2022-08-07T14:31:57.985Z,3.00
2022-08-07T14:34:32.222Z,3.57
2022-08-07T14:37:03.617Z,3.50
2022-08-07T14:40:17.646Z,3.67
2022-08-07T14:42:32.320Z,7.27
2022-08-07T14:45:21.738Z,8.60
2022-08-07T14:47:51.250Z,9.03
2022-08-07T14:50:27.946Z,4.00
2022-08-07T14:52:57.173Z,3.40
2022-08-07T14:55:55.318Z,4.47
2022-08-07T14:58:32.190Z,3.10
2022-08-07T15:01:22.059Z,4.10
2022-08-07T15:03:52.348Z,4.20
2022-08-07T15:06:34.293Z,4.70
2022-08-07T15:09:47.086Z,5.17
2022-08-07T15:12:26.355Z,4.50
2022-08-07T15:15:22.260Z,4.20
2022-08-07T15:21:59.587Z,6.63
2022-08-07T15:25:15.780Z,8.10
2022-08-07T15:27:17.172Z,4.03
2022-08-07T15:30:08.408Z,3.77
2022-08-07T15:33:03.766Z,3.90
2022-08-07T15:36:01.176Z,4.90
2022-08-07T15:42:44.540Z,4.00
2022-08-07T15:44:15.196Z,5.33
2022-08-07T15:46:52.578Z,4.33
2022-08-07T15:50:05.472Z,4.23
2022-08-07T15:52:30.265Z,4.40
2022-08-07T15:55:04.518Z,8.60
2022-08-07T15:57:48.763Z,7.23
2022-08-07T16:00:22.786Z,4.53
2022-08-07T16:03:20.520Z,6.07
2022-08-07T16:05:51.827Z,4.67
2022-08-07T16:08:31.069Z,4.90
2022-08-07T16:11:29.322Z,3.70
2022-08-07T16:14:17.143Z,11.80
2022-08-07T16:17:01.877Z,4.23
2022-08-07T16:19:41.796Z,4.53
2022-08-07T16:22:38.247Z,13.10
2022-08-07T16:25:54.792Z,5.40
2022-08-07T16:30:07.582Z,5.40
2022-08-07T16:32:34.485Z,4.70
2022-08-07T16:35:51.499Z,3.60
2022-08-07T16:39:00.858Z,5.10
2022-08-07T16:41:59.934Z,5.47
2022-08-07T16:46:47.649Z,13.17
2022-08-07T16:50:27.247Z,4.20
2022-08-07T16:52:52.108Z,3.97
2022-08-07T16:55:47.318Z,10.43
2022-08-07T16:59:10.211Z,5.10
2022-08-07T17:01:41.027Z,4.70
2022-08-07T17:04:24.490Z,3.80
2022-08-07T17:07:02.718Z,4.90
2022-08-07T17:10:05.081Z,6.60
2022-08-07T17:12:44.364Z,5.90
2022-08-07T17:15:15.746Z,5.10
2022-08-07T17:17:48.524Z,5.77
2022-08-07T17:20:42.792Z,8.50
2022-08-07T17:23:22.474Z,5.03
2022-08-07T17:26:36.857Z,5.30
2022-08-07T17:30:14.385Z,5.43
2022-08-07T17:32:36.140Z,8.20
2022-08-07T17:35:49.743Z,7.17
2022-08-07T17:38:51.071Z,6.30
2022-08-07T17:42:03.755Z,6.00
2022-08-07T17:44:41.623Z,4.83
2022-08-07T17:47:42.249Z,5.43
2022-08-07T17:50:22.866Z,4.87
2022-08-07T17:53:05.866Z,4.50
2022-08-07T17:55:59.968Z,4.20
2022-08-07T17:58:51.116Z,6.10
2022-08-07T18:01:45.695Z,6.10
2022-08-07T18:04:34.672Z,5.97
2022-08-07T18:07:34.267Z,5.27
2022-08-07T18:10:28.656Z,4.90
2022-08-07T18:13:16.553Z,5.57
2022-08-07T18:16:32.801Z,4.93
2022-08-07T18:21:03.562Z,5.10
2022-08-07T18:22:47.602Z,8.20
2022-08-07T18:25:40.835Z,5.03
2022-08-07T18:28:34.581Z,5.33
2022-08-07T18:31:50.370Z,5.10
2022-08-07T18:34:53.192Z,4.83
2022-08-07T18:38:56.385Z,8.23
2022-08-07T18:41:09.420Z,6.07
2022-08-07T18:43:57.842Z,7.00
2022-08-07T18:47:05.242Z,8.03
2022-08-07T18:50:35.186Z,5.50
2022-08-07T18:53:06.100Z,5.87
2022-08-07T18:56:31.851Z,7.30
2022-08-07T18:59:09.842Z,8.93
2022-08-07T19:02:36.554Z,7.57
2022-08-07T19:06:02.504Z,10.30
2022-08-07T19:08:29.738Z,10.33
2022-08-07T19:11:36.620Z,18.10
2022-08-07T19:14:19.804Z,6.93
2022-08-07T19:17:06.694Z,6.87
2022-08-07T19:19:48.933Z,7.00
2022-08-07T19:22:44.943Z,7.90
2022-08-07T19:26:22.644Z,16.03
2022-08-07T19:28:58.139Z,5.67
2022-08-07T19:32:01.159Z,5.90
2022-08-07T19:34:34.108Z,13.63
2022-08-07T19:37:17.792Z,5.90
2022-08-07T19:40:08.834Z,8.10
2022-08-07T19:42:44.510Z,6.20
2022-08-07T19:46:00.955Z,9.03
2022-08-07T19:48:18.688Z,6.43
2022-08-07T19:50:53.519Z,7.03
2022-08-07T19:54:30.888Z,13.63
2022-08-07T19:57:51.693Z,13.97
2022-08-07T19:59:24.554Z,7.03
2022-08-07T20:02:15.475Z,18.07
2022-08-07T20:04:48.981Z,8.90
2022-08-07T20:07:23.541Z,17.67
2022-08-07T20:10:34.070Z,9.73
2022-08-07T20:12:49.097Z,13.63
2022-08-07T20:15:22.229Z,10.23
2022-08-07T20:18:01.696Z,6.47
2022-08-07T20:20:35.054Z,14.50
2022-08-07T20:23:23.304Z,12.03
2022-08-07T20:26:02.816Z,6.77
2022-08-07T20:28:31.905Z,7.37
2022-08-07T20:31:02.674Z,8.17
2022-08-07T20:33:36.873Z,9.50
2022-08-07T20:36:10.919Z,7.27
2022-08-07T20:38:53.312Z,6.73
2022-08-07T20:41:38.460Z,8.33
2022-08-07T20:44:13.080Z,12.73
2022-08-07T20:46:44.367Z,11.73
2022-08-07T20:49:59.819Z,6.17
2022-08-07T20:52:17.630Z,5.60
2022-08-07T20:54:56.556Z,12.47
2022-08-07T20:57:35.974Z,5.80
2022-08-07T21:00:09.539Z,7.40
2022-08-07T21:03:01.870Z,8.97
2022-08-07T21:05:54.819Z,16.50
2022-08-07T21:08:46.669Z,6.57
2022-08-07T21:11:22.095Z,5.47
2022-08-07T21:14:32.134Z,7.73
2022-08-07T21:18:00.721Z,6.03
2022-08-07T21:19:51.770Z,10.57
2022-08-07T21:22:51.315Z,11.10
2022-08-07T21:25:58.626Z,8.13
2022-08-07T21:28:50.910Z,5.83
2022-08-07T21:32:42.581Z,8.03
2022-08-07T21:34:48.998Z,6.83
2022-08-07T21:37:57.178Z,5.50
2022-08-07T21:40:39.267Z,7.47
2022-08-07T21:43:47.307Z,5.60
2022-08-07T21:46:34.524Z,8.80
2022-08-07T21:49:16.797Z,6.47
2022-08-07T21:51:51.354Z,15.50
2022-08-07T21:54:59.662Z,6.83
2022-08-07T21:58:18.396Z,5.83
2022-08-07T22:01:08.438Z,6.03
2022-08-07T22:04:02.558Z,10.53
2022-08-07T22:06:46.252Z,6.33
2022-08-07T22:09:25.401Z,6.37
2022-08-07T22:12:07.059Z,7.73
2022-08-07T22:15:00.526Z,11.93
2022-08-07T22:17:37.917Z,6.40
2022-08-07T22:20:23.540Z,8.90
2022-08-07T22:23:01.807Z,6.50
2022-08-07T22:25:43.707Z,9.93
2022-08-07T22:28:34.094Z,7.93
2022-08-07T22:31:45.286Z,9.23
2022-08-07T22:34:29.095Z,7.23
2022-08-07T22:38:03.211Z,7.50
2022-08-07T22:40:32.490Z,9.47
2022-08-07T22:43:34.052Z,6.63
2022-08-07T22:46:47.065Z,7.60
2022-08-07T22:49:27.364Z,9.80
2022-08-07T22:52:40.060Z,10.40
2022-08-07T22:55:43.180Z,8.47
2022-08-07T22:58:50.716Z,7.07
2022-08-07T23:01:54.480Z,12.40
2022-08-07T23:06:09.121Z,7.83
2022-08-07T23:08:33.489Z,7.47
2022-08-07T23:11:21.588Z,7.60
2022-08-07T23:14:16.904Z,7.37
2022-08-07T23:17:30.440Z,11.00
2022-08-07T23:20:51.744Z,9.80
2022-08-07T23:24:05.260Z,8.17
2022-08-07T23:26:27.813Z,8.93
2022-08-07T23:29:43.218Z,8.57
2022-08-07T23:34:19.444Z,9.03
2022-08-07T23:36:05.962Z,8.47
2022-08-07T23:39:02.073Z,10.63
2022-08-07T23:42:05.056Z,11.50
2022-08-07T23:45:03.474Z,8.80
2022-08-07T23:48:36.497Z,11.43
2022-08-07T23:53:01.378Z,10.53
2022-08-07T23:54:54.291Z,13.83
2022-08-07T23:57:47.954Z,8.50
